sensor_id;sensor_type;location;lat;lon;timestamp;P1;durP1;ratioP1;P2;durP2;ratioP2
16775;SDS011;8505;49.456;8.164;2023-02-15T00:00:23;99.50;;;39.58;;
16775;SDS011;8505;49.456;8.164;2023-02-15T00:02:51;100.63;;;37.97;;
16775;SDS011;8505;49.456;8.164;2023-02-15T00:05:19;97.25;;;38.83;;
16775;SDS011;8505;49.456;8.164;2023-02-15T00:07:47;101.22;;;39.00;;
16775;SDS011;8505;49.456;8.164;2023-02-15T00:10:15;116.15;;;39.75;;
16775;SDS011;8505;49.456;8.164;2023-02-15T00:12:43;98.93;;;38.33;;
16775;SDS011;8505;49.456;8.164;2023-02-15T00:15:11;132.52;;;40.30;;
16775;SDS011;8505;49.456;8.164;2023-02-15T00:17:40;103.43;;;40.25;;
16775;SDS011;8505;49.456;8.164;2023-02-15T00:20:08;147.60;;;41.95;;
16775;SDS011;8505;49.456;8.164;2023-02-15T00:22:37;146.20;;;40.92;;
16775;SDS011;8505;49.456;8.164;2023-02-15T00:25:05;127.13;;;39.75;;
16775;SDS011;8505;49.456;8.164;2023-02-15T00:27:33;104.97;;;39.47;;
16775;SDS011;8505;49.456;8.164;2023-02-15T00:30:01;100.22;;;39.65;;
16775;SDS011;8505;49.456;8.164;2023-02-15T00:32:29;101.88;;;39.00;;
16775;SDS011;8505;49.456;8.164;2023-02-15T00:34:58;96.40;;;39.08;;
16775;SDS011;8505;49.456;8.164;2023-02-15T00:37:26;101.85;;;38.33;;
16775;SDS011;8505;49.456;8.164;2023-02-15T00:39:54;104.55;;;37.92;;
16775;SDS011;8505;49.456;8.164;2023-02-15T00:42:21;95.78;;;36.80;;
16775;SDS011;8505;49.456;8.164;2023-02-15T00:44:49;134.02;;;39.83;;
16775;SDS011;8505;49.456;8.164;2023-02-15T00:47:17;92.25;;;37.35;;
16775;SDS011;8505;49.456;8.164;2023-02-15T00:49:44;139.68;;;38.85;;
16775;SDS011;8505;49.456;8.164;2023-02-15T00:52:13;149.80;;;41.38;;
16775;SDS011;8505;49.456;8.164;2023-02-15T00:54:41;93.72;;;37.20;;
16775;SDS011;8505;49.456;8.164;2023-02-15T00:57:09;100.20;;;35.70;;
16775;SDS011;8505;49.456;8.164;2023-02-15T00:59:36;88.20;;;35.20;;
16775;SDS011;8505;49.456;8.164;2023-02-15T01:02:04;91.70;;;34.53;;
16775;SDS011;8505;49.456;8.164;2023-02-15T01:04:32;101.03;;;36.13;;
16775;SDS011;8505;49.456;8.164;2023-02-15T01:06:59;91.40;;;35.67;;
16775;SDS011;8505;49.456;8.164;2023-02-15T01:09:29;100.47;;;36.53;;
16775;SDS011;8505;49.456;8.164;2023-02-15T01:11:57;104.13;;;36.67;;
16775;SDS011;8505;49.456;8.164;2023-02-15T01:14:24;105.28;;;37.42;;
16775;SDS011;8505;49.456;8.164;2023-02-15T01:16:52;98.60;;;37.33;;
16775;SDS011;8505;49.456;8.164;2023-02-15T01:19:20;94.47;;;36.95;;
16775;SDS011;8505;49.456;8.164;2023-02-15T01:21:47;91.97;;;35.83;;
16775;SDS011;8505;49.456;8.164;2023-02-15T01:24:15;94.15;;;37.25;;
16775;SDS011;8505;49.456;8.164;2023-02-15T01:26:45;96.72;;;37.30;;
16775;SDS011;8505;49.456;8.164;2023-02-15T01:29:12;92.03;;;36.17;;
16775;SDS011;8505;49.456;8.164;2023-02-15T01:31:40;99.30;;;37.60;;
16775;SDS011;8505;49.456;8.164;2023-02-15T01:34:08;99.70;;;35.47;;
16775;SDS011;8505;49.456;8.164;2023-02-15T01:36:36;94.70;;;36.47;;
16775;SDS011;8505;49.456;8.164;2023-02-15T01:39:04;85.45;;;35.60;;
16775;SDS011;8505;49.456;8.164;2023-02-15T01:41:31;81.15;;;31.83;;
16775;SDS011;8505;49.456;8.164;2023-02-15T01:44:01;93.00;;;33.88;;
16775;SDS011;8505;49.456;8.164;2023-02-15T01:46:37;90.63;;;35.78;;
16775;SDS011;8505;49.456;8.164;2023-02-15T01:49:09;92.03;;;35.85;;
16775;SDS011;8505;49.456;8.164;2023-02-15T01:51:40;101.18;;;35.80;;
16775;SDS011;8505;49.456;8.164;2023-02-15T01:54:11;88.72;;;34.95;;
16775;SDS011;8505;49.456;8.164;2023-02-15T01:56:46;85.60;;;34.33;;
16775;SDS011;8505;49.456;8.164;2023-02-15T01:59:18;96.90;;;36.05;;
16775;SDS011;8505;49.456;8.164;2023-02-15T02:01:49;90.32;;;35.30;;
16775;SDS011;8505;49.456;8.164;2023-02-15T02:04:20;91.97;;;34.40;;
16775;SDS011;8505;49.456;8.164;2023-02-15T02:06:52;90.57;;;34.50;;
16775;SDS011;8505;49.456;8.164;2023-02-15T02:09:21;86.30;;;34.70;;
16775;SDS011;8505;49.456;8.164;2023-02-15T02:11:49;105.65;;;35.03;;
16775;SDS011;8505;49.456;8.164;2023-02-15T02:14:19;125.18;;;35.35;;
16775;SDS011;8505;49.456;8.164;2023-02-15T02:16:49;84.13;;;34.55;;
16775;SDS011;8505;49.456;8.164;2023-02-15T02:22:43;84.75;;;33.83;;
16775;SDS011;8505;49.456;8.164;2023-02-15T02:31:50;98.73;;;36.43;;
16775;SDS011;8505;49.456;8.164;2023-02-15T02:34:46;109.20;;;35.33;;
16775;SDS011;8505;49.456;8.164;2023-02-15T02:37:19;126.38;;;35.70;;
16775;SDS011;8505;49.456;8.164;2023-02-15T02:39:53;101.83;;;34.73;;
16775;SDS011;8505;49.456;8.164;2023-02-15T02:42:31;88.68;;;33.90;;
16775;SDS011;8505;49.456;8.164;2023-02-15T02:45:06;82.25;;;33.15;;
16775;SDS011;8505;49.456;8.164;2023-02-15T02:47:38;80.43;;;31.85;;
16775;SDS011;8505;49.456;8.164;2023-02-15T02:50:13;81.47;;;32.78;;
16775;SDS011;8505;49.456;8.164;2023-02-15T02:52:44;84.55;;;34.05;;
16775;SDS011;8505;49.456;8.164;2023-02-15T02:55:15;88.38;;;35.13;;
16775;SDS011;8505;49.456;8.164;2023-02-15T02:57:47;91.30;;;35.00;;
16775;SDS011;8505;49.456;8.164;2023-02-15T03:00:21;85.15;;;33.50;;
16775;SDS011;8505;49.456;8.164;2023-02-15T03:02:51;122.78;;;34.88;;
16775;SDS011;8505;49.456;8.164;2023-02-15T03:05:27;165.45;;;36.00;;
16775;SDS011;8505;49.456;8.164;2023-02-15T03:07:57;86.47;;;33.60;;
16775;SDS011;8505;49.456;8.164;2023-02-15T03:10:32;90.28;;;32.78;;
16775;SDS011;8505;49.456;8.164;2023-02-15T03:13:03;101.00;;;32.97;;
16775;SDS011;8505;49.456;8.164;2023-02-15T03:15:32;92.82;;;34.30;;
16775;SDS011;8505;49.456;8.164;2023-02-15T03:18:22;87.20;;;33.10;;
16775;SDS011;8505;49.456;8.164;2023-02-15T03:20:53;86.43;;;33.50;;
16775;SDS011;8505;49.456;8.164;2023-02-15T03:23:23;85.18;;;33.85;;
16775;SDS011;8505;49.456;8.164;2023-02-15T03:25:56;112.65;;;34.05;;
16775;SDS011;8505;49.456;8.164;2023-02-15T03:28:27;108.13;;;33.70;;
16775;SDS011;8505;49.456;8.164;2023-02-15T03:30:59;93.18;;;34.50;;
16775;SDS011;8505;49.456;8.164;2023-02-15T03:33:30;87.88;;;34.17;;
16775;SDS011;8505;49.456;8.164;2023-02-15T03:36:01;91.63;;;34.30;;
16775;SDS011;8505;49.456;8.164;2023-02-15T03:38:33;89.83;;;33.67;;
16775;SDS011;8505;49.456;8.164;2023-02-15T03:41:07;82.25;;;32.75;;
16775;SDS011;8505;49.456;8.164;2023-02-15T03:43:39;78.78;;;31.70;;
16775;SDS011;8505;49.456;8.164;2023-02-15T03:46:19;85.22;;;32.10;;
16775;SDS011;8505;49.456;8.164;2023-02-15T03:48:54;78.65;;;31.77;;
16775;SDS011;8505;49.456;8.164;2023-02-15T03:51:28;74.87;;;30.60;;
16775;SDS011;8505;49.456;8.164;2023-02-15T03:54:03;70.07;;;29.45;;
16775;SDS011;8505;49.456;8.164;2023-02-15T03:56:34;90.43;;;31.13;;
16775;SDS011;8505;49.456;8.164;2023-02-15T03:59:03;74.47;;;30.95;;
16775;SDS011;8505;49.456;8.164;2023-02-15T04:01:52;75.40;;;30.88;;
16775;SDS011;8505;49.456;8.164;2023-02-15T04:04:28;76.60;;;29.38;;
16775;SDS011;8505;49.456;8.164;2023-02-15T04:07:01;78.43;;;31.10;;
16775;SDS011;8505;49.456;8.164;2023-02-15T04:09:30;79.70;;;30.38;;
16775;SDS011;8505;49.456;8.164;2023-02-15T04:12:15;77.05;;;31.08;;
16775;SDS011;8505;49.456;8.164;2023-02-15T04:14:43;82.57;;;30.97;;
16775;SDS011;8505;49.456;8.164;2023-02-15T04:17:29;84.03;;;31.13;;
16775;SDS011;8505;49.456;8.164;2023-02-15T04:19:56;74.72;;;30.35;;
16775;SDS011;8505;49.456;8.164;2023-02-15T04:22:43;77.22;;;29.20;;
16775;SDS011;8505;49.456;8.164;2023-02-15T04:25:29;94.77;;;29.20;;
16775;SDS011;8505;49.456;8.164;2023-02-15T04:27:56;117.70;;;30.02;;
16775;SDS011;8505;49.456;8.164;2023-02-15T04:30:25;71.43;;;29.50;;
16775;SDS011;8505;49.456;8.164;2023-02-15T04:32:53;75.15;;;27.77;;
16775;SDS011;8505;49.456;8.164;2023-02-15T04:35:23;67.27;;;28.00;;
16775;SDS011;8505;49.456;8.164;2023-02-15T04:37:53;72.10;;;27.50;;
16775;SDS011;8505;49.456;8.164;2023-02-15T04:40:22;80.07;;;29.43;;
16775;SDS011;8505;49.456;8.164;2023-02-15T04:42:50;68.78;;;28.98;;
16775;SDS011;8505;49.456;8.164;2023-02-15T04:45:18;81.07;;;28.40;;
16775;SDS011;8505;49.456;8.164;2023-02-15T04:47:46;81.13;;;28.02;;
16775;SDS011;8505;49.456;8.164;2023-02-15T04:50:13;66.90;;;27.83;;
16775;SDS011;8505;49.456;8.164;2023-02-15T04:52:41;66.35;;;27.02;;
16775;SDS011;8505;49.456;8.164;2023-02-15T04:55:10;60.03;;;26.73;;
16775;SDS011;8505;49.456;8.164;2023-02-15T04:57:38;62.25;;;25.85;;
16775;SDS011;8505;49.456;8.164;2023-02-15T05:00:06;65.57;;;26.35;;
16775;SDS011;8505;49.456;8.164;2023-02-15T05:02:35;51.90;;;23.90;;
16775;SDS011;8505;49.456;8.164;2023-02-15T05:05:04;48.85;;;23.10;;
16775;SDS011;8505;49.456;8.164;2023-02-15T05:07:32;54.90;;;23.33;;
16775;SDS011;8505;49.456;8.164;2023-02-15T05:09:59;59.63;;;25.15;;
16775;SDS011;8505;49.456;8.164;2023-02-15T05:12:29;54.22;;;25.45;;
16775;SDS011;8505;49.456;8.164;2023-02-15T05:14:56;54.92;;;25.38;;
16775;SDS011;8505;49.456;8.164;2023-02-15T05:17:24;60.63;;;25.65;;
16775;SDS011;8505;49.456;8.164;2023-02-15T05:19:52;52.30;;;24.63;;
16775;SDS011;8505;49.456;8.164;2023-02-15T05:22:19;61.47;;;25.15;;
16775;SDS011;8505;49.456;8.164;2023-02-15T05:24:47;79.38;;;23.65;;
16775;SDS011;8505;49.456;8.164;2023-02-15T05:27:33;51.83;;;21.38;;
16775;SDS011;8505;49.456;8.164;2023-02-15T05:30:19;49.80;;;22.13;;
16775;SDS011;8505;49.456;8.164;2023-02-15T05:32:47;46.00;;;22.13;;
16775;SDS011;8505;49.456;8.164;2023-02-15T05:35:15;80.22;;;22.45;;
16775;SDS011;8505;49.456;8.164;2023-02-15T05:37:43;45.60;;;21.40;;
16775;SDS011;8505;49.456;8.164;2023-02-15T05:40:11;39.57;;;20.87;;
16775;SDS011;8505;49.456;8.164;2023-02-15T05:42:40;39.13;;;20.63;;
16775;SDS011;8505;49.456;8.164;2023-02-15T05:45:08;41.95;;;20.40;;
16775;SDS011;8505;49.456;8.164;2023-02-15T05:47:36;42.63;;;19.02;;
16775;SDS011;8505;49.456;8.164;2023-02-15T05:50:04;37.35;;;19.27;;
16775;SDS011;8505;49.456;8.164;2023-02-15T05:52:33;38.90;;;19.53;;
16775;SDS011;8505;49.456;8.164;2023-02-15T05:55:01;35.58;;;18.40;;
16775;SDS011;8505;49.456;8.164;2023-02-15T05:57:30;35.70;;;18.88;;
16775;SDS011;8505;49.456;8.164;2023-02-15T05:59:59;41.23;;;19.77;;
16775;SDS011;8505;49.456;8.164;2023-02-15T06:02:27;36.15;;;18.98;;
16775;SDS011;8505;49.456;8.164;2023-02-15T06:04:55;56.03;;;20.45;;
16775;SDS011;8505;49.456;8.164;2023-02-15T06:07:22;37.63;;;20.00;;
16775;SDS011;8505;49.456;8.164;2023-02-15T06:09:50;41.40;;;19.67;;
16775;SDS011;8505;49.456;8.164;2023-02-15T06:12:18;39.50;;;19.77;;
16775;SDS011;8505;49.456;8.164;2023-02-15T06:14:45;41.60;;;19.83;;
16775;SDS011;8505;49.456;8.164;2023-02-15T06:17:14;37.00;;;19.13;;
16775;SDS011;8505;49.456;8.164;2023-02-15T06:19:42;39.45;;;19.85;;
16775;SDS011;8505;49.456;8.164;2023-02-15T06:22:10;38.65;;;19.63;;
16775;SDS011;8505;49.456;8.164;2023-02-15T06:24:40;35.15;;;19.25;;
16775;SDS011;8505;49.456;8.164;2023-02-15T06:27:09;34.50;;;19.05;;
16775;SDS011;8505;49.456;8.164;2023-02-15T06:29:37;35.40;;;18.83;;
16775;SDS011;8505;49.456;8.164;2023-02-15T06:32:04;33.70;;;18.43;;
16775;SDS011;8505;49.456;8.164;2023-02-15T06:34:36;35.22;;;18.45;;
16775;SDS011;8505;49.456;8.164;2023-02-15T06:37:04;33.95;;;18.02;;
16775;SDS011;8505;49.456;8.164;2023-02-15T06:39:34;30.63;;;17.80;;
16775;SDS011;8505;49.456;8.164;2023-02-15T06:42:01;30.10;;;16.63;;
16775;SDS011;8505;49.456;8.164;2023-02-15T06:44:29;28.38;;;16.17;;
16775;SDS011;8505;49.456;8.164;2023-02-15T06:46:57;27.75;;;15.77;;
16775;SDS011;8505;49.456;8.164;2023-02-15T06:49:25;28.30;;;15.52;;
16775;SDS011;8505;49.456;8.164;2023-02-15T06:51:54;26.95;;;15.55;;
16775;SDS011;8505;49.456;8.164;2023-02-15T06:54:21;28.33;;;15.88;;
16775;SDS011;8505;49.456;8.164;2023-02-15T06:56:49;28.88;;;15.98;;
16775;SDS011;8505;49.456;8.164;2023-02-15T06:59:17;25.73;;;15.20;;
16775;SDS011;8505;49.456;8.164;2023-02-15T07:01:45;26.00;;;15.23;;
16775;SDS011;8505;49.456;8.164;2023-02-15T07:04:12;27.87;;;15.60;;
16775;SDS011;8505;49.456;8.164;2023-02-15T07:06:40;25.92;;;14.90;;
16775;SDS011;8505;49.456;8.164;2023-02-15T07:09:09;25.23;;;14.82;;
16775;SDS011;8505;49.456;8.164;2023-02-15T07:11:38;27.88;;;15.30;;
16775;SDS011;8505;49.456;8.164;2023-02-15T07:14:24;29.70;;;16.50;;
16775;SDS011;8505;49.456;8.164;2023-02-15T07:16:54;29.23;;;16.63;;
16775;SDS011;8505;49.456;8.164;2023-02-15T07:19:22;30.40;;;16.65;;
16775;SDS011;8505;49.456;8.164;2023-02-15T07:21:50;31.27;;;17.15;;
16775;SDS011;8505;49.456;8.164;2023-02-15T07:24:19;30.80;;;17.00;;
16775;SDS011;8505;49.456;8.164;2023-02-15T07:26:46;33.22;;;17.98;;
16775;SDS011;8505;49.456;8.164;2023-02-15T07:29:14;32.53;;;17.60;;
16775;SDS011;8505;49.456;8.164;2023-02-15T07:31:42;32.30;;;17.13;;
16775;SDS011;8505;49.456;8.164;2023-02-15T07:34:11;32.20;;;17.80;;
16775;SDS011;8505;49.456;8.164;2023-02-15T07:36:39;31.35;;;17.08;;
16775;SDS011;8505;49.456;8.164;2023-02-15T07:39:06;28.10;;;16.08;;
16775;SDS011;8505;49.456;8.164;2023-02-15T07:41:36;31.00;;;15.95;;
16775;SDS011;8505;49.456;8.164;2023-02-15T07:44:04;27.38;;;15.65;;
16775;SDS011;8505;49.456;8.164;2023-02-15T07:46:32;25.83;;;15.35;;
16775;SDS011;8505;49.456;8.164;2023-02-15T07:48:59;28.05;;;16.38;;
16775;SDS011;8505;49.456;8.164;2023-02-15T07:51:27;29.88;;;17.92;;
16775;SDS011;8505;49.456;8.164;2023-02-15T07:53:55;30.30;;;17.25;;
16775;SDS011;8505;49.456;8.164;2023-02-15T07:56:23;28.92;;;16.67;;
16775;SDS011;8505;49.456;8.164;2023-02-15T07:58:52;26.73;;;16.40;;
16775;SDS011;8505;49.456;8.164;2023-02-15T08:01:22;26.83;;;15.80;;
16775;SDS011;8505;49.456;8.164;2023-02-15T08:03:52;27.15;;;16.33;;
16775;SDS011;8505;49.456;8.164;2023-02-15T08:06:21;28.98;;;17.02;;
16775;SDS011;8505;49.456;8.164;2023-02-15T08:08:51;26.95;;;16.17;;
16775;SDS011;8505;49.456;8.164;2023-02-15T08:11:20;27.08;;;15.80;;
16775;SDS011;8505;49.456;8.164;2023-02-15T08:14:05;31.45;;;17.75;;
16775;SDS011;8505;49.456;8.164;2023-02-15T08:16:34;33.08;;;18.08;;
16775;SDS011;8505;49.456;8.164;2023-02-15T08:19:05;31.77;;;16.98;;
16775;SDS011;8505;49.456;8.164;2023-02-15T08:21:34;31.33;;;17.10;;
16775;SDS011;8505;49.456;8.164;2023-02-15T08:24:04;36.63;;;19.27;;
16775;SDS011;8505;49.456;8.164;2023-02-15T08:26:33;33.97;;;18.75;;
16775;SDS011;8505;49.456;8.164;2023-02-15T08:29:01;32.28;;;18.20;;
16775;SDS011;8505;49.456;8.164;2023-02-15T08:31:35;30.58;;;17.08;;
16775;SDS011;8505;49.456;8.164;2023-02-15T08:34:04;30.50;;;16.93;;
16775;SDS011;8505;49.456;8.164;2023-02-15T08:36:32;31.88;;;18.00;;
16775;SDS011;8505;49.456;8.164;2023-02-15T08:39:01;31.13;;;17.77;;
16775;SDS011;8505;49.456;8.164;2023-02-15T08:41:32;32.63;;;18.20;;
16775;SDS011;8505;49.456;8.164;2023-02-15T08:44:02;31.23;;;17.73;;
16775;SDS011;8505;49.456;8.164;2023-02-15T08:46:32;31.15;;;17.50;;
16775;SDS011;8505;49.456;8.164;2023-02-15T08:49:02;31.50;;;17.55;;
16775;SDS011;8505;49.456;8.164;2023-02-15T08:51:31;30.23;;;17.00;;
16775;SDS011;8505;49.456;8.164;2023-02-15T08:54:02;31.67;;;17.93;;
16775;SDS011;8505;49.456;8.164;2023-02-15T08:56:33;33.97;;;18.20;;
16775;SDS011;8505;49.456;8.164;2023-02-15T08:59:02;34.58;;;18.48;;
16775;SDS011;8505;49.456;8.164;2023-02-15T09:01:33;34.63;;;18.58;;
16775;SDS011;8505;49.456;8.164;2023-02-15T09:04:04;34.47;;;19.20;;
16775;SDS011;8505;49.456;8.164;2023-02-15T09:06:35;33.85;;;18.73;;
16775;SDS011;8505;49.456;8.164;2023-02-15T09:09:03;37.25;;;19.73;;
16775;SDS011;8505;49.456;8.164;2023-02-15T09:11:33;42.03;;;21.05;;
16775;SDS011;8505;49.456;8.164;2023-02-15T09:14:02;39.67;;;21.17;;
16775;SDS011;8505;49.456;8.164;2023-02-15T09:16:32;36.40;;;20.30;;
16775;SDS011;8505;49.456;8.164;2023-02-15T09:19:02;35.97;;;19.80;;
16775;SDS011;8505;49.456;8.164;2023-02-15T09:21:32;43.75;;;21.67;;
16775;SDS011;8505;49.456;8.164;2023-02-15T09:24:02;40.55;;;20.80;;
16775;SDS011;8505;49.456;8.164;2023-02-15T09:26:32;42.30;;;21.63;;
16775;SDS011;8505;49.456;8.164;2023-02-15T09:29:02;41.38;;;21.70;;
16775;SDS011;8505;49.456;8.164;2023-02-15T09:31:31;38.13;;;19.90;;
16775;SDS011;8505;49.456;8.164;2023-02-15T09:34:01;41.78;;;21.40;;
16775;SDS011;8505;49.456;8.164;2023-02-15T09:36:31;37.40;;;20.70;;
16775;SDS011;8505;49.456;8.164;2023-02-15T09:39:03;38.17;;;20.88;;
16775;SDS011;8505;49.456;8.164;2023-02-15T09:41:43;38.53;;;19.80;;
16775;SDS011;8505;49.456;8.164;2023-02-15T09:44:32;34.92;;;18.92;;
16775;SDS011;8505;49.456;8.164;2023-02-15T09:47:18;34.30;;;18.05;;
16775;SDS011;8505;49.456;8.164;2023-02-15T09:50:10;36.40;;;19.53;;
16775;SDS011;8505;49.456;8.164;2023-02-15T09:52:52;36.63;;;19.58;;
16775;SDS011;8505;49.456;8.164;2023-02-15T09:55:40;34.30;;;18.50;;
16775;SDS011;8505;49.456;8.164;2023-02-15T09:58:20;38.55;;;20.05;;
16775;SDS011;8505;49.456;8.164;2023-02-15T10:00:58;40.17;;;21.13;;
16775;SDS011;8505;49.456;8.164;2023-02-15T10:03:36;40.00;;;20.63;;
16775;SDS011;8505;49.456;8.164;2023-02-15T10:06:23;37.58;;;20.27;;
16775;SDS011;8505;49.456;8.164;2023-02-15T10:09:06;32.58;;;18.10;;
16775;SDS011;8505;49.456;8.164;2023-02-15T10:12:14;32.37;;;17.83;;
16775;SDS011;8505;49.456;8.164;2023-02-15T10:18:01;29.95;;;16.55;;
16775;SDS011;8505;49.456;8.164;2023-02-15T10:20:40;32.22;;;17.77;;
16775;SDS011;8505;49.456;8.164;2023-02-15T10:23:22;34.28;;;18.30;;
16775;SDS011;8505;49.456;8.164;2023-02-15T10:26:07;36.40;;;19.48;;
16775;SDS011;8505;49.456;8.164;2023-02-15T10:28:42;38.38;;;20.50;;
16775;SDS011;8505;49.456;8.164;2023-02-15T10:31:17;38.67;;;21.50;;
16775;SDS011;8505;49.456;8.164;2023-02-15T10:34:01;38.08;;;20.20;;
16775;SDS011;8505;49.456;8.164;2023-02-15T10:36:46;38.83;;;20.38;;
16775;SDS011;8505;49.456;8.164;2023-02-15T10:39:25;39.45;;;21.05;;
16775;SDS011;8505;49.456;8.164;2023-02-15T10:42:00;37.30;;;20.20;;
16775;SDS011;8505;49.456;8.164;2023-02-15T10:44:38;34.00;;;18.77;;
16775;SDS011;8505;49.456;8.164;2023-02-15T10:50:13;35.65;;;19.27;;
16775;SDS011;8505;49.456;8.164;2023-02-15T10:52:55;34.80;;;19.83;;
16775;SDS011;8505;49.456;8.164;2023-02-15T10:55:37;35.78;;;19.42;;
16775;SDS011;8505;49.456;8.164;2023-02-15T10:58:16;37.50;;;19.73;;
16775;SDS011;8505;49.456;8.164;2023-02-15T11:00:52;35.53;;;20.15;;
16775;SDS011;8505;49.456;8.164;2023-02-15T11:03:31;35.27;;;19.10;;
16775;SDS011;8505;49.456;8.164;2023-02-15T11:06:06;35.80;;;19.15;;
16775;SDS011;8505;49.456;8.164;2023-02-15T11:08:37;35.47;;;19.03;;
16775;SDS011;8505;49.456;8.164;2023-02-15T11:11:10;34.75;;;19.10;;
16775;SDS011;8505;49.456;8.164;2023-02-15T11:13:45;33.67;;;18.92;;
16775;SDS011;8505;49.456;8.164;2023-02-15T11:16:18;36.25;;;19.35;;
16775;SDS011;8505;49.456;8.164;2023-02-15T11:18:51;33.77;;;19.00;;
16775;SDS011;8505;49.456;8.164;2023-02-15T11:21:24;33.08;;;18.25;;
16775;SDS011;8505;49.456;8.164;2023-02-15T11:23:55;35.28;;;19.65;;
16775;SDS011;8505;49.456;8.164;2023-02-15T11:26:24;36.03;;;19.13;;
16775;SDS011;8505;49.456;8.164;2023-02-15T11:28:59;35.42;;;19.55;;
16775;SDS011;8505;49.456;8.164;2023-02-15T11:31:36;38.88;;;20.50;;
16775;SDS011;8505;49.456;8.164;2023-02-15T11:34:12;37.15;;;19.98;;
16775;SDS011;8505;49.456;8.164;2023-02-15T11:36:47;37.60;;;20.55;;
16775;SDS011;8505;49.456;8.164;2023-02-15T11:39:18;38.83;;;20.92;;
16775;SDS011;8505;49.456;8.164;2023-02-15T11:41:50;40.30;;;20.50;;
16775;SDS011;8505;49.456;8.164;2023-02-15T11:44:24;44.85;;;21.20;;
16775;SDS011;8505;49.456;8.164;2023-02-15T11:46:58;40.08;;;20.38;;
16775;SDS011;8505;49.456;8.164;2023-02-15T11:49:28;41.53;;;21.67;;
16775;SDS011;8505;49.456;8.164;2023-02-15T11:51:59;39.92;;;20.92;;
16775;SDS011;8505;49.456;8.164;2023-02-15T11:54:30;40.90;;;21.23;;
16775;SDS011;8505;49.456;8.164;2023-02-15T11:57:02;37.13;;;20.10;;
16775;SDS011;8505;49.456;8.164;2023-02-15T11:59:40;37.78;;;20.58;;
16775;SDS011;8505;49.456;8.164;2023-02-15T12:02:14;36.58;;;20.05;;
16775;SDS011;8505;49.456;8.164;2023-02-15T12:04:46;36.45;;;20.02;;
16775;SDS011;8505;49.456;8.164;2023-02-15T12:07:19;41.95;;;22.15;;
16775;SDS011;8505;49.456;8.164;2023-02-15T12:09:52;44.45;;;22.67;;
16775;SDS011;8505;49.456;8.164;2023-02-15T12:12:28;44.10;;;22.37;;
16775;SDS011;8505;49.456;8.164;2023-02-15T12:14:59;46.53;;;22.83;;
16775;SDS011;8505;49.456;8.164;2023-02-15T12:17:29;46.85;;;23.08;;
16775;SDS011;8505;49.456;8.164;2023-02-15T12:20:00;45.83;;;23.48;;
16775;SDS011;8505;49.456;8.164;2023-02-15T12:22:30;45.78;;;23.90;;
16775;SDS011;8505;49.456;8.164;2023-02-15T12:25:02;46.60;;;23.98;;
16775;SDS011;8505;49.456;8.164;2023-02-15T12:27:38;49.35;;;25.00;;
16775;SDS011;8505;49.456;8.164;2023-02-15T12:30:16;47.17;;;25.02;;
16775;SDS011;8505;49.456;8.164;2023-02-15T12:32:52;47.38;;;24.30;;
16775;SDS011;8505;49.456;8.164;2023-02-15T12:35:25;46.47;;;23.95;;
16775;SDS011;8505;49.456;8.164;2023-02-15T12:37:57;43.90;;;23.23;;
16775;SDS011;8505;49.456;8.164;2023-02-15T12:40:29;44.50;;;23.02;;
16775;SDS011;8505;49.456;8.164;2023-02-15T12:42:59;44.35;;;23.17;;
16775;SDS011;8505;49.456;8.164;2023-02-15T12:45:36;46.47;;;23.75;;
16775;SDS011;8505;49.456;8.164;2023-02-15T12:48:08;46.38;;;23.27;;
16775;SDS011;8505;49.456;8.164;2023-02-15T12:50:42;45.00;;;23.55;;
16775;SDS011;8505;49.456;8.164;2023-02-15T12:53:15;46.47;;;24.98;;
16775;SDS011;8505;49.456;8.164;2023-02-15T12:55:49;49.00;;;24.43;;
16775;SDS011;8505;49.456;8.164;2023-02-15T12:58:20;52.05;;;25.00;;
16775;SDS011;8505;49.456;8.164;2023-02-15T13:03:54;48.63;;;24.33;;
16775;SDS011;8505;49.456;8.164;2023-02-15T13:06:25;48.55;;;25.08;;
16775;SDS011;8505;49.456;8.164;2023-02-15T13:08:58;46.17;;;24.17;;
16775;SDS011;8505;49.456;8.164;2023-02-15T13:11:33;47.30;;;23.80;;
16775;SDS011;8505;49.456;8.164;2023-02-15T13:14:02;47.20;;;24.45;;
16775;SDS011;8505;49.456;8.164;2023-02-15T13:16:44;47.75;;;24.45;;
16775;SDS011;8505;49.456;8.164;2023-02-15T13:19:15;50.28;;;25.90;;
16775;SDS011;8505;49.456;8.164;2023-02-15T13:21:45;49.65;;;25.98;;
16775;SDS011;8505;49.456;8.164;2023-02-15T13:24:17;55.72;;;26.83;;
16775;SDS011;8505;49.456;8.164;2023-02-15T13:26:50;54.67;;;27.67;;
16775;SDS011;8505;49.456;8.164;2023-02-15T13:29:34;53.97;;;27.20;;
16775;SDS011;8505;49.456;8.164;2023-02-15T13:32:07;56.50;;;28.48;;
16775;SDS011;8505;49.456;8.164;2023-02-15T13:34:56;54.95;;;28.08;;
16775;SDS011;8505;49.456;8.164;2023-02-15T13:37:39;57.58;;;27.73;;
16775;SDS011;8505;49.456;8.164;2023-02-15T13:40:30;56.40;;;28.42;;
16775;SDS011;8505;49.456;8.164;2023-02-15T13:43:04;58.63;;;28.20;;
16775;SDS011;8505;49.456;8.164;2023-02-15T13:45:45;62.67;;;29.13;;
16775;SDS011;8505;49.456;8.164;2023-02-15T13:48:25;59.05;;;28.58;;
16775;SDS011;8505;49.456;8.164;2023-02-15T13:51:17;61.15;;;29.63;;
16775;SDS011;8505;49.456;8.164;2023-02-15T13:54:02;62.40;;;28.58;;
16775;SDS011;8505;49.456;8.164;2023-02-15T13:56:53;60.83;;;28.97;;
16775;SDS011;8505;49.456;8.164;2023-02-15T13:59:37;58.65;;;28.45;;
16775;SDS011;8505;49.456;8.164;2023-02-15T14:02:32;65.28;;;31.55;;
16775;SDS011;8505;49.456;8.164;2023-02-15T14:05:16;74.40;;;35.13;;
16775;SDS011;8505;49.456;8.164;2023-02-15T14:07:56;70.68;;;33.70;;
16775;SDS011;8505;49.456;8.164;2023-02-15T14:10:31;69.85;;;32.10;;
16775;SDS011;8505;49.456;8.164;2023-02-15T14:13:12;74.20;;;35.67;;
16775;SDS011;8505;49.456;8.164;2023-02-15T14:16:03;60.73;;;29.83;;
16775;SDS011;8505;49.456;8.164;2023-02-15T14:18:39;59.85;;;28.60;;
16775;SDS011;8505;49.456;8.164;2023-02-15T14:21:15;58.60;;;29.00;;
16775;SDS011;8505;49.456;8.164;2023-02-15T14:23:52;59.80;;;29.02;;
16775;SDS011;8505;49.456;8.164;2023-02-15T14:26:31;57.85;;;27.98;;
16775;SDS011;8505;49.456;8.164;2023-02-15T14:29:11;57.28;;;28.95;;
16775;SDS011;8505;49.456;8.164;2023-02-15T14:31:48;58.10;;;28.40;;
16775;SDS011;8505;49.456;8.164;2023-02-15T14:34:22;58.78;;;29.15;;
16775;SDS011;8505;49.456;8.164;2023-02-15T14:36:55;58.90;;;28.73;;
16775;SDS011;8505;49.456;8.164;2023-02-15T14:39:26;57.13;;;28.15;;
16775;SDS011;8505;49.456;8.164;2023-02-15T14:42:23;51.28;;;27.38;;
16775;SDS011;8505;49.456;8.164;2023-02-15T14:44:54;54.30;;;27.63;;
16775;SDS011;8505;49.456;8.164;2023-02-15T14:47:29;58.80;;;28.90;;
16775;SDS011;8505;49.456;8.164;2023-02-15T14:53:22;56.13;;;28.45;;
16775;SDS011;8505;49.456;8.164;2023-02-15T14:56:14;57.47;;;30.08;;
16775;SDS011;8505;49.456;8.164;2023-02-15T15:01:51;56.28;;;28.67;;
16775;SDS011;8505;49.456;8.164;2023-02-15T15:04:25;55.75;;;28.27;;
16775;SDS011;8505;49.456;8.164;2023-02-15T15:06:58;58.70;;;28.47;;
16775;SDS011;8505;49.456;8.164;2023-02-15T15:09:39;61.22;;;29.85;;
16775;SDS011;8505;49.456;8.164;2023-02-15T15:12:13;60.87;;;31.50;;
16775;SDS011;8505;49.456;8.164;2023-02-15T15:14:59;59.25;;;29.77;;
16775;SDS011;8505;49.456;8.164;2023-02-15T15:26:35;60.70;;;30.23;;
16775;SDS011;8505;49.456;8.164;2023-02-15T15:29:06;58.05;;;29.33;;
16775;SDS011;8505;49.456;8.164;2023-02-15T15:31:39;58.70;;;30.23;;
16775;SDS011;8505;49.456;8.164;2023-02-15T15:34:17;56.33;;;29.00;;
16775;SDS011;8505;49.456;8.164;2023-02-15T15:37:09;67.57;;;36.88;;
16775;SDS011;8505;49.456;8.164;2023-02-15T15:49:17;55.40;;;29.73;;